createdAt,value
2019-05-02T00:00:40.092Z,15.00
2019-05-02T00:03:08.360Z,18.70
2019-05-02T00:05:36.712Z,17.10
2019-05-02T00:08:04.904Z,17.40
2019-05-02T00:10:34.583Z,17.47
2019-05-02T00:13:03.107Z,20.30
2019-05-02T00:15:33.120Z,20.07
2019-05-02T00:18:02.610Z,18.30
2019-05-02T00:20:31.067Z,17.13
2019-05-02T00:22:59.384Z,17.43
2019-05-02T00:25:27.756Z,16.70
2019-05-02T00:27:56.352Z,18.30
2019-05-02T00:30:24.969Z,19.13
2019-05-02T00:32:58.152Z,20.50
2019-05-02T00:35:23.396Z,16.37
2019-05-02T00:37:52.741Z,17.00
2019-05-02T00:40:25.846Z,19.93
2019-05-02T00:42:53.245Z,17.70
2019-05-02T00:45:23.963Z,18.50
2019-05-02T00:47:52.980Z,17.93
2019-05-02T00:50:22.568Z,19.90
2019-05-02T00:52:50.980Z,18.37
2019-05-02T00:55:19.323Z,18.67
2019-05-02T00:57:50.896Z,16.20
2019-05-02T01:00:18.519Z,19.00
2019-05-02T01:02:49.295Z,16.83
2019-05-02T01:05:17.744Z,18.00
2019-05-02T01:07:46.002Z,17.63
2019-05-02T01:10:17.363Z,18.47
2019-05-02T01:12:46.083Z,18.73
2019-05-02T01:15:14.566Z,18.03
2019-05-02T01:17:42.903Z,16.90
2019-05-02T01:20:11.429Z,17.53
2019-05-02T01:22:39.906Z,16.83
2019-05-02T01:25:14.949Z,17.37
2019-05-02T01:27:41.236Z,19.60
2019-05-02T01:30:11.818Z,18.83
2019-05-02T01:32:41.670Z,15.93
2019-05-02T01:35:11.552Z,18.43
2019-05-02T01:37:41.512Z,18.77
2019-05-02T01:40:13.071Z,18.37
2019-05-02T01:42:44.537Z,17.07
2019-05-02T01:45:12.471Z,16.60
2019-05-02T01:47:40.883Z,17.33
2019-05-02T01:50:09.232Z,18.50
2019-05-02T01:52:37.865Z,18.10
2019-05-02T01:55:07.002Z,20.77
2019-05-02T01:57:35.344Z,17.90
2019-05-02T02:00:09.473Z,20.47
2019-05-02T02:02:35.424Z,22.40
2019-05-02T02:05:05.210Z,20.70
2019-05-02T02:07:33.682Z,22.83
2019-05-02T02:10:02.072Z,21.80
2019-05-02T02:12:30.440Z,24.73
2019-05-02T02:14:58.764Z,23.93
2019-05-02T02:17:27.139Z,100.07
2019-05-02T02:19:57.024Z,106.53
2019-05-02T02:22:26.883Z,21.57
2019-05-02T02:25:00.981Z,20.67
2019-05-02T02:27:27.387Z,230.93
2019-05-02T02:29:55.856Z,206.67
2019-05-02T02:32:27.113Z,223.80
2019-05-02T02:34:54.140Z,201.20
2019-05-02T02:37:22.402Z,196.47
2019-05-02T02:39:54.299Z,191.87
2019-05-02T02:42:25.134Z,69.57
2019-05-02T02:44:52.380Z,30.63
2019-05-02T02:47:21.200Z,26.33
2019-05-02T02:49:55.975Z,27.87
2019-05-02T02:52:19.726Z,28.27
2019-05-02T02:54:48.148Z,24.80
2019-05-02T02:57:26.040Z,30.97
2019-05-02T02:59:46.480Z,27.37
2019-05-02T03:02:14.840Z,29.03
2019-05-02T03:04:45.974Z,25.03
2019-05-02T03:07:24.152Z,27.83
2019-05-02T03:09:43.037Z,26.20
2019-05-02T03:12:13.028Z,25.13
2019-05-02T03:14:47.076Z,24.83
2019-05-02T03:17:12.906Z,34.83
2019-05-02T03:19:41.288Z,31.47
2019-05-02T03:22:10.052Z,36.87
2019-05-02T03:24:43.960Z,28.60
2019-05-02T03:27:08.427Z,291.40
2019-05-02T03:29:43.814Z,242.20
2019-05-02T03:32:25.963Z,370.30
2019-05-02T03:34:47.236Z,324.87
2019-05-02T03:37:10.522Z,273.33
2019-05-02T03:39:36.793Z,258.57
2019-05-02T03:42:05.274Z,261.17
2019-05-02T03:44:33.509Z,328.10
2019-05-02T03:47:04.685Z,310.53
2019-05-02T03:49:31.809Z,312.27
2019-05-02T03:52:02.617Z,301.03
2019-05-02T03:54:30.953Z,204.27
2019-05-02T03:56:59.224Z,214.37
2019-05-02T03:59:37.496Z,303.53
2019-05-02T04:01:58.498Z,153.90
2019-05-02T04:04:26.827Z,183.10
2019-05-02T04:07:00.960Z,150.93
2019-05-02T04:09:31.967Z,142.23
2019-05-02T04:11:56.706Z,133.53
2019-05-02T04:14:37.528Z,148.13
2019-05-02T04:16:57.314Z,136.43
2019-05-02T04:19:28.770Z,141.57
2019-05-02T04:22:01.609Z,90.50
2019-05-02T04:24:26.953Z,147.40
2019-05-02T04:26:56.326Z,149.40
2019-05-02T04:29:31.253Z,136.40
2019-05-02T04:31:54.746Z,118.80
2019-05-02T04:34:23.144Z,151.97
2019-05-02T04:36:59.797Z,145.60
2019-05-02T04:39:21.995Z,141.20
2019-05-02T04:41:50.792Z,143.63
2019-05-02T04:44:19.343Z,165.33
2019-05-02T04:46:48.827Z,130.03
2019-05-02T04:49:20.128Z,24.23
2019-05-02T04:51:59.415Z,31.83
2019-05-02T04:54:25.840Z,67.13
2019-05-02T04:56:49.719Z,141.63
2019-05-02T04:59:22.781Z,144.40
2019-05-02T05:01:54.349Z,137.67
2019-05-02T05:04:18.070Z,146.40
2019-05-02T05:06:55.018Z,148.20
2019-05-02T05:09:18.025Z,151.63
2019-05-02T05:11:48.204Z,150.50
2019-05-02T05:14:17.949Z,146.60
2019-05-02T05:16:51.738Z,155.63
2019-05-02T05:19:17.844Z,139.20
2019-05-02T05:21:47.675Z,130.37
2019-05-02T05:24:18.268Z,138.13
2019-05-02T05:26:48.068Z,132.23
2019-05-02T05:29:21.316Z,130.20
2019-05-02T05:31:48.277Z,125.40
2019-05-02T05:34:17.339Z,127.27
2019-05-02T05:36:48.165Z,117.03
2019-05-02T05:39:17.651Z,52.17
2019-05-02T05:41:48.347Z,22.97
2019-05-02T05:44:18.083Z,23.30
2019-05-02T05:46:48.886Z,20.67
2019-05-02T05:49:18.332Z,22.77
2019-05-02T05:51:47.710Z,77.37
2019-05-02T05:54:17.756Z,79.10
2019-05-02T05:56:45.763Z,128.57
2019-05-02T05:59:14.357Z,23.73
2019-05-02T06:01:43.134Z,127.13
2019-05-02T06:04:13.967Z,107.87
2019-05-02T06:06:41.345Z,12.80
2019-05-02T06:09:09.786Z,103.30
2019-05-02T06:11:38.170Z,121.30
2019-05-02T06:14:06.399Z,43.23
2019-05-02T06:16:35.392Z,42.53
2019-05-02T06:19:03.938Z,13.40
2019-05-02T06:21:32.292Z,11.37
2019-05-02T06:24:01.506Z,13.73
2019-05-02T06:26:29.952Z,10.20
2019-05-02T06:28:58.254Z,11.87
2019-05-02T06:31:26.625Z,13.23
2019-05-02T06:33:55.012Z,12.80
2019-05-02T06:36:23.240Z,12.30
2019-05-02T06:38:52.094Z,12.37
2019-05-02T06:41:22.317Z,13.13
2019-05-02T06:43:51.992Z,12.03
2019-05-02T06:46:21.746Z,13.13
2019-05-02T06:48:52.377Z,12.60
2019-05-02T06:51:21.173Z,10.33
2019-05-02T06:53:49.672Z,13.67
2019-05-02T06:56:18.065Z,14.37
2019-05-02T06:58:46.476Z,9.23
2019-05-02T07:01:16.319Z,12.40
2019-05-02T07:03:46.228Z,9.13
2019-05-02T07:06:15.092Z,12.67
2019-05-02T07:08:43.379Z,10.33
2019-05-02T07:11:11.665Z,12.93
2019-05-02T07:13:42.020Z,12.40
2019-05-02T07:16:16.077Z,8.60
2019-05-02T07:18:47.560Z,11.70
2019-05-02T07:21:17.346Z,12.80
2019-05-02T07:23:43.421Z,10.97
2019-05-02T07:26:15.584Z,10.43
2019-05-02T07:28:45.754Z,8.37
2019-05-02T07:31:13.756Z,10.80
2019-05-02T07:33:41.690Z,12.03
2019-05-02T07:36:09.997Z,11.87
2019-05-02T07:38:38.240Z,8.73
2019-05-02T07:41:07.687Z,10.57
2019-05-02T07:43:36.082Z,11.37
2019-05-02T07:46:04.512Z,8.23
2019-05-02T07:48:32.896Z,8.77
2019-05-02T07:51:01.189Z,10.60
2019-05-02T07:53:29.532Z,9.43
2019-05-02T07:55:58.024Z,9.07
2019-05-02T07:58:26.320Z,10.57
2019-05-02T08:00:54.684Z,10.43
2019-05-02T08:03:22.993Z,8.33
2019-05-02T08:05:54.359Z,9.70
2019-05-02T08:08:25.074Z,8.70
2019-05-02T08:10:53.815Z,10.80
2019-05-02T08:13:21.214Z,10.03
2019-05-02T08:15:50.736Z,9.40
2019-05-02T08:18:19.582Z,10.23
2019-05-02T08:20:51.100Z,59.00
2019-05-02T08:26:35.175Z,11.23
2019-05-02T08:32:20.956Z,12.03
2019-05-02T08:38:17.435Z,8.83
2019-05-02T08:43:58.787Z,12.10
2019-05-02T08:49:44.104Z,10.13
2019-05-02T08:52:12.472Z,12.03
2019-05-02T08:57:56.947Z,10.10
2019-05-02T09:03:55.162Z,7.70
2019-05-02T09:09:30.153Z,12.07
2019-05-02T09:15:14.284Z,11.43
2019-05-02T09:17:46.477Z,12.27
2019-05-02T09:20:16.657Z,11.93
2019-05-02T09:25:59.388Z,10.53
2019-05-02T09:31:46.051Z,10.60
2019-05-02T09:37:42.039Z,8.10
2019-05-02T09:43:29.369Z,7.43
2019-05-02T09:49:16.463Z,8.90
2019-05-02T09:55:02.888Z,9.58
2019-05-02T09:57:32.233Z,13.50
2019-05-02T10:03:17.507Z,11.95
2019-05-02T10:05:45.859Z,11.83
2019-05-02T10:11:22.497Z,9.60
2019-05-02T10:17:07.066Z,11.35
2019-05-02T10:19:35.190Z,8.73
2019-05-02T10:22:03.464Z,8.15
2019-05-02T10:24:32.311Z,11.63
2019-05-02T10:27:04.038Z,166.57
2019-05-02T10:29:32.899Z,10.08
2019-05-02T10:32:01.934Z,9.58
2019-05-02T10:34:30.213Z,10.10
2019-05-02T10:37:00.243Z,11.63
2019-05-02T10:39:33.185Z,9.10
2019-05-02T10:41:58.416Z,10.38
2019-05-02T10:44:27.217Z,10.63
2019-05-02T10:46:58.358Z,10.45
2019-05-02T10:49:28.404Z,10.30
2019-05-02T10:51:56.659Z,10.32
2019-05-02T10:54:27.896Z,12.20
2019-05-02T10:56:55.100Z,12.80
2019-05-02T10:59:23.432Z,12.40
2019-05-02T11:01:53.372Z,15.75
2019-05-02T11:04:24.105Z,11.43
2019-05-02T11:06:51.933Z,9.13
2019-05-02T11:09:22.507Z,7.97
2019-05-02T11:11:52.039Z,10.65
2019-05-02T11:14:22.523Z,10.60
2019-05-02T11:16:52.631Z,9.50
2019-05-02T11:19:22.621Z,10.72
2019-05-02T11:21:56.258Z,10.75
2019-05-02T11:24:22.483Z,11.40
2019-05-02T11:26:52.863Z,10.75
2019-05-02T11:29:22.803Z,11.28
2019-05-02T11:31:52.112Z,9.83
2019-05-02T11:34:22.036Z,10.18
2019-05-02T11:36:52.496Z,8.03
2019-05-02T11:39:31.499Z,11.30
2019-05-02T11:41:52.565Z,7.92
2019-05-02T11:44:22.455Z,9.23
2019-05-02T11:46:52.043Z,7.47
2019-05-02T11:49:22.747Z,10.60
2019-05-02T11:51:52.657Z,8.90
2019-05-02T11:54:22.709Z,12.07
2019-05-02T11:56:53.365Z,7.25
2019-05-02T11:59:27.648Z,9.20
2019-05-02T12:01:59.801Z,11.25
2019-05-02T12:04:22.512Z,7.35
2019-05-02T12:07:01.158Z,9.80
2019-05-02T12:09:22.342Z,9.48
2019-05-02T12:11:54.994Z,11.83
2019-05-02T12:14:22.871Z,10.88
2019-05-02T12:16:52.763Z,14.35
2019-05-02T12:19:22.874Z,9.95
2019-05-02T12:21:52.868Z,14.28
2019-05-02T12:24:22.128Z,10.88
2019-05-02T12:26:52.680Z,11.57
2019-05-02T12:29:23.212Z,12.63
2019-05-02T12:31:56.427Z,13.68
2019-05-02T12:34:23.165Z,12.25
2019-05-02T12:36:52.551Z,11.10
2019-05-02T12:39:22.174Z,13.45
2019-05-02T12:41:53.314Z,9.58
2019-05-02T12:44:22.361Z,10.63
2019-05-02T12:46:51.778Z,14.58
2019-05-02T12:49:26.967Z,14.63
2019-05-02T12:51:52.298Z,12.58
2019-05-02T12:54:21.941Z,11.43
2019-05-02T12:56:52.613Z,11.60
2019-05-02T12:59:22.365Z,10.40
2019-05-02T13:01:51.818Z,11.75
2019-05-02T13:04:20.286Z,10.55
2019-05-02T13:06:48.561Z,11.53
2019-05-02T13:09:16.900Z,7.28
2019-05-02T13:11:49.562Z,9.68
2019-05-02T13:14:19.999Z,5.80
2019-05-02T13:16:53.625Z,10.83
2019-05-02T13:19:19.496Z,9.30
2019-05-02T13:21:50.129Z,10.70
2019-05-02T13:24:23.777Z,5.78
2019-05-02T13:26:53.941Z,10.80
2019-05-02T13:29:22.488Z,8.63
2019-05-02T13:31:52.572Z,8.48
2019-05-02T13:34:22.451Z,10.95
2019-05-02T13:36:52.080Z,11.33
2019-05-02T13:39:22.241Z,8.93
2019-05-02T13:41:52.160Z,12.67
2019-05-02T13:44:22.404Z,14.25
2019-05-02T13:46:50.831Z,13.43
2019-05-02T13:49:19.361Z,15.27
2019-05-02T13:51:47.532Z,8.70
2019-05-02T13:54:15.951Z,18.87
2019-05-02T13:56:45.791Z,13.60
2019-05-02T13:59:14.230Z,10.93
2019-05-02T14:01:42.812Z,13.68
2019-05-02T14:04:14.739Z,14.85
2019-05-02T14:06:42.265Z,12.30
2019-05-02T14:09:17.013Z,10.67
2019-05-02T14:11:43.567Z,14.63
2019-05-02T14:14:11.984Z,12.17
2019-05-02T14:16:41.532Z,14.10
2019-05-02T14:19:12.457Z,14.37
2019-05-02T14:21:42.158Z,13.03
2019-05-02T14:24:11.828Z,15.63
2019-05-02T14:29:56.496Z,10.97
2019-05-02T14:35:42.622Z,14.40
2019-05-02T14:41:30.047Z,15.20
2019-05-02T14:47:19.572Z,12.73
2019-05-02T14:53:05.082Z,16.43
2019-05-02T14:58:52.610Z,14.20
2019-05-02T15:01:22.541Z,13.87
2019-05-02T15:03:50.291Z,11.60
2019-05-02T15:09:36.330Z,12.50
2019-05-02T15:15:23.133Z,11.90
2019-05-02T15:21:12.246Z,11.90
2019-05-02T15:23:39.172Z,14.70
2019-05-02T15:29:27.079Z,12.23
2019-05-02T15:35:12.835Z,12.10
2019-05-02T15:37:41.744Z,8.30
2019-05-02T15:43:39.408Z,11.93
2019-05-02T15:46:06.999Z,16.97
2019-05-02T15:51:28.432Z,11.23
2019-05-02T15:57:12.990Z,11.73
2019-05-02T15:59:46.172Z,12.33
2019-05-02T16:05:28.469Z,12.17
2019-05-02T16:08:05.443Z,9.10
2019-05-02T16:13:47.072Z,13.00
2019-05-02T16:19:30.152Z,12.97
2019-05-02T16:27:57.552Z,14.43
2019-05-02T16:33:39.288Z,10.37
2019-05-02T16:39:23.041Z,10.23
2019-05-02T16:45:09.182Z,8.57
2019-05-02T16:47:37.840Z,9.67
2019-05-02T16:50:07.645Z,8.07
2019-05-02T16:55:43.415Z,7.90
2019-05-02T17:01:27.511Z,8.97
2019-05-02T17:07:16.620Z,5.30
2019-05-02T17:13:00.888Z,4.83
2019-05-02T17:18:48.311Z,4.30
2019-05-02T17:24:32.273Z,4.20
2019-05-02T17:30:16.840Z,4.83
2019-05-02T17:36:02.254Z,4.90
2019-05-02T17:41:46.470Z,5.33
2019-05-02T17:47:35.801Z,4.60
2019-05-02T17:53:22.425Z,5.13
2019-05-02T17:55:52.563Z,6.00
2019-05-02T18:01:37.757Z,5.60
2019-05-02T18:07:36.146Z,5.43
2019-05-02T18:10:07.763Z,5.33
2019-05-02T18:15:39.271Z,4.93
2019-05-02T18:18:08.029Z,5.03
2019-05-02T18:23:57.280Z,6.07
2019-05-02T18:26:23.044Z,6.27
2019-05-02T18:32:07.642Z,4.30
2019-05-02T18:37:51.919Z,7.63
2019-05-02T18:40:27.786Z,5.63
2019-05-02T18:46:07.558Z,6.20
2019-05-02T18:48:36.631Z,9.00
2019-05-02T18:54:22.055Z,5.93
2019-05-02T19:00:06.788Z,6.67
2019-05-02T19:02:35.736Z,6.13
2019-05-02T19:08:29.119Z,7.53
2019-05-02T19:14:22.394Z,8.83
2019-05-02T19:16:48.451Z,8.20
2019-05-02T19:22:32.246Z,6.83
2019-05-02T19:25:01.914Z,6.83
2019-05-02T19:30:36.849Z,6.23
2019-05-02T19:36:24.333Z,7.10
2019-05-02T19:38:52.471Z,7.40
2019-05-02T19:44:36.999Z,7.77
2019-05-02T19:47:08.444Z,6.33
2019-05-02T19:53:00.902Z,7.10
2019-05-02T19:55:24.167Z,7.17
2019-05-02T20:01:06.735Z,8.20
2019-05-02T20:06:50.996Z,5.83
2019-05-02T20:12:42.434Z,9.83
2019-05-02T20:18:21.644Z,8.40
2019-05-02T20:24:09.234Z,8.60
2019-05-02T20:26:35.301Z,9.03
2019-05-02T20:29:03.800Z,9.27
2019-05-02T20:31:32.252Z,8.83
2019-05-02T20:34:02.499Z,7.77
2019-05-02T20:36:32.089Z,9.07
2019-05-02T20:42:16.927Z,6.87
2019-05-02T20:48:03.327Z,7.50
2019-05-02T20:53:50.147Z,7.47
2019-05-02T20:59:33.948Z,7.63
2019-05-02T21:02:02.905Z,8.03
2019-05-02T21:07:48.351Z,8.37
2019-05-02T21:13:44.544Z,9.27
2019-05-02T21:19:29.395Z,6.40
2019-05-02T21:21:59.312Z,8.33
2019-05-02T21:24:27.692Z,8.57
2019-05-02T21:26:56.073Z,8.43
2019-05-02T21:32:40.171Z,7.27
2019-05-02T21:35:08.624Z,8.43
2019-05-02T21:37:37.080Z,10.37
2019-05-02T21:43:22.144Z,9.27
2019-05-02T21:48:54.566Z,11.07
2019-05-02T21:54:39.945Z,9.70
2019-05-02T21:57:12.022Z,9.53
2019-05-02T22:02:56.479Z,9.17
2019-05-02T22:08:41.992Z,10.00
2019-05-02T22:14:26.943Z,10.20
2019-05-02T22:16:55.194Z,9.03
2019-05-02T22:19:23.528Z,10.07
2019-05-02T22:25:07.700Z,11.40
2019-05-02T22:27:36.165Z,10.77
2019-05-02T22:30:05.941Z,10.90
2019-05-02T22:35:38.784Z,8.83
2019-05-02T22:38:08.705Z,10.30
2019-05-02T22:43:52.191Z,9.73
2019-05-02T22:49:37.349Z,8.80
2019-05-02T22:52:05.638Z,12.40
2019-05-02T22:57:51.762Z,11.87
2019-05-02T23:03:36.682Z,8.40
2019-05-02T23:06:05.011Z,11.40
2019-05-02T23:12:02.881Z,9.97
2019-05-02T23:17:47.264Z,10.37
2019-05-02T23:32:35.607Z,5.00
2019-05-02T23:35:07.305Z,9.60
2019-05-02T23:40:52.654Z,12.03
2019-05-02T23:43:21.854Z,11.70
2019-05-02T23:45:51.663Z,11.20
2019-05-02T23:48:22.002Z,10.30
2019-05-02T23:50:51.670Z,10.20
2019-05-02T23:56:24.264Z,11.60
